createdAt,value
2022-08-25T00:01:44.111Z,17.30
2022-08-25T00:03:44.067Z,17.20
2022-08-25T00:05:44.112Z,17.20
2022-08-25T00:07:44.851Z,17.20
2022-08-25T00:09:44.125Z,17.20
2022-08-25T00:11:44.157Z,17.20
2022-08-25T00:13:44.148Z,17.10
2022-08-25T00:15:44.110Z,17.10
2022-08-25T00:17:44.065Z,17.10
2022-08-25T00:19:44.074Z,17.00
2022-08-25T00:21:44.111Z,17.00
2022-08-25T00:23:44.052Z,17.00
2022-08-25T00:25:44.068Z,17.00
2022-08-25T00:27:44.076Z,17.00
2022-08-25T00:29:44.068Z,17.00
2022-08-25T00:31:44.112Z,16.90
2022-08-25T00:33:44.096Z,16.80
2022-08-25T00:35:44.127Z,16.80
2022-08-25T00:37:44.092Z,16.70
2022-08-25T00:39:44.181Z,16.70
2022-08-25T00:41:44.121Z,16.70
2022-08-25T00:43:44.100Z,16.70
2022-08-25T00:45:44.133Z,16.80
2022-08-25T00:47:44.207Z,16.80
2022-08-25T00:49:44.103Z,17.00
2022-08-25T00:51:44.144Z,17.10
2022-08-25T00:53:44.106Z,17.10
2022-08-25T00:56:14.157Z,17.20
2022-08-25T00:58:14.115Z,17.20
2022-08-25T01:00:14.125Z,17.20
2022-08-25T01:02:14.176Z,17.20
2022-08-25T01:04:14.111Z,17.20
2022-08-25T01:06:14.104Z,17.10
2022-08-25T01:08:16.415Z,17.10
2022-08-25T01:10:14.113Z,17.00
2022-08-25T01:12:14.135Z,17.00
2022-08-25T01:14:14.090Z,17.00
2022-08-25T01:16:14.205Z,17.00
2022-08-25T01:18:14.093Z,16.90
2022-08-25T01:20:14.123Z,16.80
2022-08-25T01:22:14.184Z,16.80
2022-08-25T01:24:14.113Z,16.70
2022-08-25T01:26:14.123Z,16.70
2022-08-25T01:28:14.207Z,16.70
2022-08-25T01:30:14.118Z,16.60
2022-08-25T01:32:14.198Z,16.50
2022-08-25T01:34:14.151Z,16.50
2022-08-25T01:36:14.153Z,16.50
2022-08-25T01:38:14.141Z,16.50
2022-08-25T01:40:14.256Z,16.40
2022-08-25T01:42:14.144Z,16.40
2022-08-25T01:44:16.589Z,16.40
2022-08-25T01:46:14.211Z,16.40
2022-08-25T01:48:14.115Z,16.40
2022-08-25T01:50:14.153Z,16.40
2022-08-25T01:52:14.165Z,16.40
2022-08-25T01:54:14.161Z,16.40
2022-08-25T01:56:14.149Z,16.40
2022-08-25T01:58:14.217Z,16.40
2022-08-25T02:00:14.158Z,16.30
2022-08-25T02:02:14.213Z,16.20
2022-08-25T02:04:14.136Z,16.20
2022-08-25T02:06:14.147Z,16.20
2022-08-25T02:08:14.165Z,16.20
2022-08-25T02:10:14.165Z,16.00
2022-08-25T02:12:14.173Z,16.00
2022-08-25T02:14:14.137Z,16.00
2022-08-25T02:16:14.167Z,15.90
2022-08-25T02:18:14.183Z,15.90
2022-08-25T02:20:14.182Z,15.90
2022-08-25T02:22:14.150Z,15.90
2022-08-25T02:24:14.184Z,15.90
2022-08-25T02:26:14.297Z,15.90
2022-08-25T02:28:14.200Z,15.90
2022-08-25T02:30:14.152Z,15.90
2022-08-25T02:32:14.171Z,15.90
2022-08-25T02:34:14.192Z,16.00
2022-08-25T02:36:14.217Z,16.10
2022-08-25T02:38:14.200Z,16.20
2022-08-25T02:40:14.263Z,16.20
2022-08-25T02:42:14.255Z,16.40
2022-08-25T02:44:14.208Z,16.40
2022-08-25T02:46:14.278Z,16.50
2022-08-25T02:48:44.280Z,16.50
2022-08-25T02:50:44.215Z,16.50
2022-08-25T02:52:44.206Z,16.40
2022-08-25T02:54:44.181Z,16.40
2022-08-25T02:56:44.333Z,16.20
2022-08-25T02:58:44.193Z,16.10
2022-08-25T03:00:44.239Z,16.10
2022-08-25T03:02:44.272Z,16.00
2022-08-25T03:04:44.250Z,15.90
2022-08-25T03:06:44.235Z,15.90
2022-08-25T03:08:44.301Z,15.80
2022-08-25T03:10:44.222Z,15.80
2022-08-25T03:12:44.201Z,15.70
2022-08-25T03:14:44.226Z,15.60
2022-08-25T03:16:46.291Z,15.50
2022-08-25T03:18:44.276Z,15.50
2022-08-25T03:20:44.195Z,15.40
2022-08-25T03:22:44.193Z,15.40
2022-08-25T03:24:44.221Z,15.30
2022-08-25T03:26:44.219Z,15.20
2022-08-25T03:28:44.227Z,15.20
2022-08-25T03:30:44.196Z,15.20
2022-08-25T03:32:44.208Z,15.20
2022-08-25T03:34:44.183Z,15.20
2022-08-25T03:36:44.415Z,15.20
2022-08-25T03:38:44.230Z,15.20
2022-08-25T03:40:44.264Z,15.00
2022-08-25T03:42:45.102Z,15.00
2022-08-25T03:44:44.216Z,15.00
2022-08-25T03:46:44.201Z,15.00
2022-08-25T03:48:44.217Z,15.00
2022-08-25T03:50:44.207Z,15.00
2022-08-25T03:52:44.278Z,15.00
2022-08-25T03:54:44.241Z,15.00
2022-08-25T03:56:44.270Z,15.00
2022-08-25T03:58:44.254Z,15.00
2022-08-25T04:00:44.311Z,15.00
2022-08-25T04:02:44.382Z,15.00
2022-08-25T04:04:44.266Z,15.00
2022-08-25T04:06:44.212Z,15.00
2022-08-25T04:08:44.245Z,15.00
2022-08-25T04:10:44.235Z,15.00
2022-08-25T04:12:44.251Z,14.80
2022-08-25T04:14:44.248Z,14.80
2022-08-25T04:16:44.348Z,14.80
2022-08-25T04:18:44.218Z,15.00
2022-08-25T04:20:46.778Z,15.00
2022-08-25T04:22:45.038Z,15.00
2022-08-25T04:24:44.234Z,15.00
2022-08-25T04:26:44.260Z,15.00
2022-08-25T04:28:44.239Z,15.00
2022-08-25T04:30:45.693Z,15.00
2022-08-25T04:32:44.264Z,15.00
2022-08-25T04:34:44.260Z,15.00
2022-08-25T04:36:44.272Z,15.00
2022-08-25T04:38:44.244Z,15.00
2022-08-25T04:40:44.295Z,15.00
2022-08-25T04:43:14.278Z,15.00
2022-08-25T04:45:15.339Z,15.00
2022-08-25T04:47:15.281Z,15.00
2022-08-25T04:49:14.248Z,15.00
2022-08-25T04:51:14.409Z,15.00
2022-08-25T04:53:14.260Z,14.90
2022-08-25T04:55:14.297Z,14.90
2022-08-25T04:57:14.254Z,14.90
2022-08-25T04:59:14.288Z,15.00
2022-08-25T05:01:15.529Z,15.00
2022-08-25T05:03:14.340Z,15.00
2022-08-25T05:05:14.273Z,15.00
2022-08-25T05:07:14.381Z,15.00
2022-08-25T05:09:14.398Z,15.00
2022-08-25T05:11:14.308Z,15.00
2022-08-25T05:13:14.285Z,15.00
2022-08-25T05:15:14.360Z,15.00
2022-08-25T05:17:14.282Z,15.10
2022-08-25T05:19:14.303Z,15.00
2022-08-25T05:21:14.272Z,15.00
2022-08-25T05:23:14.274Z,15.20
2022-08-25T05:25:14.301Z,15.20
2022-08-25T05:27:14.281Z,15.20
2022-08-25T05:29:14.303Z,15.20
2022-08-25T05:31:14.328Z,15.20
2022-08-25T05:33:14.343Z,15.30
2022-08-25T05:35:14.311Z,15.30
2022-08-25T05:37:14.313Z,15.40
2022-08-25T05:39:14.515Z,15.40
2022-08-25T05:41:14.352Z,15.50
2022-08-25T05:43:14.308Z,15.50
2022-08-25T05:45:20.636Z,15.50
2022-08-25T05:47:14.369Z,15.60
2022-08-25T05:49:14.293Z,15.70
2022-08-25T05:51:14.424Z,15.80
2022-08-25T05:53:14.415Z,15.80
2022-08-25T05:55:14.301Z,15.90
2022-08-25T05:57:14.372Z,16.00
2022-08-25T05:59:15.483Z,16.10
2022-08-25T06:01:14.472Z,16.30
2022-08-25T06:03:14.396Z,16.30
2022-08-25T06:05:14.412Z,16.40
2022-08-25T06:07:14.418Z,16.70
2022-08-25T06:09:14.411Z,17.00
2022-08-25T06:11:14.409Z,17.00
2022-08-25T06:13:14.310Z,17.00
2022-08-25T06:15:14.465Z,17.60
2022-08-25T06:17:14.364Z,17.90
2022-08-25T06:19:14.487Z,18.00
2022-08-25T06:21:14.417Z,18.00
2022-08-25T06:23:14.303Z,18.10
2022-08-25T06:25:14.480Z,18.10
2022-08-25T06:27:25.397Z,18.30
2022-08-25T06:29:25.301Z,18.30
2022-08-25T06:31:25.411Z,18.30
2022-08-25T06:33:25.361Z,18.30
2022-08-25T06:35:25.359Z,18.50
2022-08-25T06:37:25.489Z,18.50
2022-08-25T06:39:25.381Z,18.60
2022-08-25T06:41:25.400Z,18.60
2022-08-25T06:43:25.419Z,18.80
2022-08-25T06:45:25.370Z,19.10
2022-08-25T06:47:25.390Z,19.20
2022-08-25T06:49:25.378Z,19.20
2022-08-25T06:51:25.325Z,19.30
2022-08-25T06:53:25.332Z,19.30
2022-08-25T06:55:25.335Z,19.70
2022-08-25T06:57:25.337Z,19.90
2022-08-25T06:59:25.357Z,19.90
2022-08-25T07:01:25.984Z,20.00
2022-08-25T07:03:25.391Z,20.20
2022-08-25T07:05:33.494Z,20.20
2022-08-25T07:07:25.344Z,20.40
2022-08-25T07:09:25.386Z,20.40
2022-08-25T07:11:25.341Z,20.40
2022-08-25T07:13:25.457Z,20.50
2022-08-25T07:15:25.371Z,20.60
2022-08-25T07:17:25.552Z,20.60
2022-08-25T07:19:57.588Z,20.70
2022-08-25T07:21:55.445Z,20.80
2022-08-25T07:23:55.373Z,21.00
2022-08-25T07:25:55.397Z,21.00
2022-08-25T07:27:58.729Z,21.00
2022-08-25T07:29:55.388Z,21.10
2022-08-25T07:31:55.446Z,21.20
2022-08-25T07:33:55.398Z,21.20
2022-08-25T07:35:55.539Z,21.20
2022-08-25T07:37:55.421Z,21.20
2022-08-25T07:39:55.437Z,21.30
2022-08-25T07:41:55.381Z,21.40
2022-08-25T07:43:55.496Z,21.40
2022-08-25T07:45:55.418Z,21.40
2022-08-25T07:47:55.495Z,21.30
2022-08-25T07:49:55.402Z,21.60
2022-08-25T07:52:04.995Z,21.60
2022-08-25T07:53:55.417Z,21.60
2022-08-25T07:55:55.453Z,21.60
2022-08-25T07:57:57.224Z,21.80
2022-08-25T07:59:55.402Z,21.90
2022-08-25T08:01:55.492Z,22.00
2022-08-25T08:03:56.285Z,21.90
2022-08-25T08:05:55.418Z,21.90
2022-08-25T08:07:55.403Z,22.00
2022-08-25T08:10:11.921Z,22.20
2022-08-25T08:11:55.432Z,22.40
2022-08-25T08:13:55.415Z,22.40
2022-08-25T08:15:55.454Z,22.40
2022-08-25T08:17:55.510Z,22.70
2022-08-25T08:19:55.387Z,23.20
2022-08-25T08:21:55.454Z,23.40
2022-08-25T08:23:58.746Z,23.40
2022-08-25T08:25:55.387Z,23.50
2022-08-25T08:27:55.444Z,23.60
2022-08-25T08:29:55.436Z,23.80
2022-08-25T08:31:55.556Z,24.00
2022-08-25T08:33:55.407Z,24.00
2022-08-25T08:35:55.405Z,24.30
2022-08-25T08:37:55.450Z,24.70
2022-08-25T08:39:55.451Z,25.10
2022-08-25T08:42:11.199Z,24.80
2022-08-25T08:43:55.573Z,24.80
2022-08-25T08:45:55.549Z,24.90
2022-08-25T08:47:55.444Z,24.60
2022-08-25T08:49:55.463Z,24.80
2022-08-25T08:51:55.436Z,24.80
2022-08-25T08:53:57.106Z,24.80
2022-08-25T08:55:56.085Z,24.80
2022-08-25T08:57:55.490Z,24.70
2022-08-25T08:59:56.811Z,24.70
2022-08-25T09:01:55.534Z,24.70
2022-08-25T09:03:55.556Z,25.00
2022-08-25T09:05:55.484Z,24.90
2022-08-25T09:07:56.086Z,25.30
2022-08-25T09:09:55.607Z,25.30
2022-08-25T09:11:55.531Z,25.30
2022-08-25T09:13:55.509Z,25.00
2022-08-25T09:15:55.584Z,24.70
2022-08-25T09:18:25.558Z,25.00
2022-08-25T09:20:25.614Z,25.20
2022-08-25T09:22:33.839Z,25.80
2022-08-25T09:24:25.591Z,25.80
2022-08-25T09:26:25.511Z,26.00
2022-08-25T09:28:25.483Z,25.60
2022-08-25T09:30:25.541Z,25.50
2022-08-25T09:32:31.243Z,25.30
2022-08-25T09:34:25.524Z,25.30
2022-08-25T09:36:25.506Z,25.30
2022-08-25T09:38:25.613Z,25.80
2022-08-25T09:40:25.559Z,26.00
2022-08-25T09:42:28.147Z,26.40
2022-08-25T09:44:25.891Z,26.40
2022-08-25T09:46:26.940Z,26.60
2022-08-25T09:48:25.572Z,26.80
2022-08-25T09:50:25.696Z,26.90
2022-08-25T09:52:25.576Z,26.90
2022-08-25T09:54:44.122Z,27.30
2022-08-25T09:56:25.506Z,27.30
2022-08-25T09:58:25.535Z,27.50
2022-08-25T10:00:25.642Z,27.60
2022-08-25T10:02:25.937Z,27.60
2022-08-25T10:04:25.822Z,27.30
2022-08-25T10:06:25.584Z,27.80
2022-08-25T10:08:25.612Z,27.80
2022-08-25T10:10:25.616Z,27.60
2022-08-25T10:12:27.705Z,27.60
2022-08-25T10:14:25.504Z,27.30
2022-08-25T10:16:26.968Z,27.30
2022-08-25T10:18:26.036Z,27.00
2022-08-25T10:20:25.599Z,27.00
2022-08-25T10:22:25.648Z,26.70
2022-08-25T10:24:25.630Z,26.50
2022-08-25T10:26:25.535Z,26.60
2022-08-25T10:28:25.737Z,26.70
2022-08-25T10:30:25.567Z,26.70
2022-08-25T10:32:25.586Z,27.00
2022-08-25T10:34:25.607Z,27.80
2022-08-25T10:36:25.604Z,27.40
2022-08-25T10:38:27.281Z,26.30
2022-08-25T10:40:25.643Z,26.30
2022-08-25T10:42:25.960Z,26.20
2022-08-25T10:44:25.545Z,25.90
2022-08-25T10:46:25.637Z,26.30
2022-08-25T10:48:25.598Z,26.30
2022-08-25T10:50:25.559Z,26.80
2022-08-25T10:52:25.640Z,27.20
2022-08-25T10:54:25.611Z,27.60
2022-08-25T10:56:25.666Z,27.60
2022-08-25T10:58:25.654Z,27.60
2022-08-25T11:00:31.278Z,28.20
2022-08-25T11:02:25.596Z,28.40
2022-08-25T11:04:25.632Z,29.00
2022-08-25T11:06:25.627Z,29.00
2022-08-25T11:08:25.627Z,29.00
2022-08-25T11:10:25.653Z,28.50
2022-08-25T11:12:25.652Z,28.80
2022-08-25T11:14:25.615Z,29.10
2022-08-25T11:16:25.644Z,28.40
2022-08-25T11:18:25.632Z,28.40
2022-08-25T11:20:55.613Z,28.60
2022-08-25T11:22:55.650Z,27.60
2022-08-25T11:24:55.703Z,27.60
2022-08-25T11:26:55.670Z,27.60
2022-08-25T11:28:55.710Z,26.90
2022-08-25T11:30:55.761Z,26.60
2022-08-25T11:32:55.559Z,26.80
2022-08-25T11:34:55.606Z,27.40
2022-08-25T11:36:55.661Z,27.40
2022-08-25T11:38:55.676Z,27.40
2022-08-25T11:40:55.669Z,27.80
2022-08-25T11:42:55.748Z,27.60
2022-08-25T11:44:55.737Z,27.80
2022-08-25T11:46:55.580Z,27.80
2022-08-25T11:48:55.620Z,28.00
2022-08-25T11:50:55.661Z,27.50
2022-08-25T11:52:55.652Z,27.60
2022-08-25T11:54:55.686Z,27.60
2022-08-25T11:56:55.706Z,26.80
2022-08-25T11:58:55.737Z,26.80
2022-08-25T12:00:55.706Z,28.10
2022-08-25T12:02:58.462Z,28.40
2022-08-25T12:04:55.757Z,28.40
2022-08-25T12:06:55.619Z,28.10
2022-08-25T12:08:57.735Z,27.40
2022-08-25T12:10:55.691Z,27.60
2022-08-25T12:12:55.782Z,27.80
2022-08-25T12:14:55.822Z,27.80
2022-08-25T12:16:55.811Z,28.30
2022-08-25T12:18:55.632Z,28.30
2022-08-25T12:20:55.629Z,29.10
2022-08-25T12:22:55.717Z,29.10
2022-08-25T12:24:55.688Z,29.50
2022-08-25T12:26:55.687Z,29.50
2022-08-25T12:28:55.754Z,29.40
2022-08-25T12:30:55.925Z,28.90
2022-08-25T12:32:55.775Z,28.90
2022-08-25T12:34:55.662Z,28.70
2022-08-25T12:36:55.660Z,28.80
2022-08-25T12:38:55.696Z,28.70
2022-08-25T12:40:55.710Z,28.40
2022-08-25T12:42:55.754Z,28.40
2022-08-25T12:44:55.768Z,27.80
2022-08-25T12:46:55.743Z,28.00
2022-08-25T12:48:55.825Z,28.20
2022-08-25T12:50:55.781Z,28.20
2022-08-25T12:52:55.710Z,28.50
2022-08-25T12:54:55.729Z,29.00
2022-08-25T12:56:55.699Z,28.80
2022-08-25T12:59:00.213Z,28.80
2022-08-25T13:00:57.921Z,28.80
2022-08-25T13:02:55.848Z,28.00
2022-08-25T13:04:55.847Z,28.30
2022-08-25T13:06:55.848Z,27.80
2022-08-25T13:08:56.285Z,27.60
2022-08-25T13:10:55.786Z,27.60
2022-08-25T13:12:55.730Z,27.50
2022-08-25T13:14:55.809Z,27.80
2022-08-25T13:16:55.800Z,28.30
2022-08-25T13:18:55.824Z,28.60
2022-08-25T13:21:25.794Z,28.70
2022-08-25T13:23:25.796Z,28.70
2022-08-25T13:25:27.743Z,28.90
2022-08-25T13:27:25.792Z,29.10
2022-08-25T13:29:25.776Z,29.10
2022-08-25T13:31:25.908Z,29.10
2022-08-25T13:33:25.854Z,29.10
2022-08-25T13:35:30.339Z,29.20
2022-08-25T13:37:25.866Z,29.00
2022-08-25T13:41:04.136Z,29.00
2022-08-25T13:43:04.099Z,28.90
2022-08-25T13:45:04.153Z,28.60
2022-08-25T13:47:04.165Z,28.40
2022-08-25T13:49:04.191Z,28.40
2022-08-25T13:51:04.228Z,28.10
2022-08-25T13:53:04.193Z,28.00
2022-08-25T13:55:38.268Z,28.40
2022-08-25T13:57:34.241Z,28.80
2022-08-25T13:59:35.252Z,29.40
2022-08-25T14:01:48.258Z,29.40
2022-08-25T14:03:34.315Z,29.70
2022-08-25T14:05:36.079Z,29.20
2022-08-25T14:07:34.751Z,28.80
2022-08-25T14:09:34.457Z,28.20
2022-08-25T14:11:34.245Z,28.20
2022-08-25T14:13:34.132Z,28.00
2022-08-25T14:15:34.218Z,27.80
2022-08-25T14:17:39.955Z,27.60
2022-08-25T14:19:34.225Z,27.60
2022-08-25T14:21:34.574Z,27.60
2022-08-25T14:23:34.224Z,27.60
2022-08-25T14:25:34.276Z,27.60
2022-08-25T14:27:38.935Z,27.80
2022-08-25T14:29:35.540Z,27.80
2022-08-25T14:31:34.292Z,27.40
2022-08-25T14:33:34.195Z,27.20
2022-08-25T14:35:34.246Z,27.10
2022-08-25T14:37:34.231Z,27.10
2022-08-25T14:39:34.146Z,27.10
2022-08-25T14:41:34.287Z,27.30
2022-08-25T14:43:34.268Z,27.30
2022-08-25T14:45:34.230Z,27.30
2022-08-25T14:47:34.181Z,27.40
2022-08-25T14:49:34.193Z,27.40
2022-08-25T14:51:34.280Z,27.60
2022-08-25T14:53:34.262Z,27.70
2022-08-25T14:55:34.303Z,27.70
2022-08-25T14:57:34.260Z,27.70
2022-08-25T14:59:34.293Z,27.60
2022-08-25T15:01:34.258Z,27.60
2022-08-25T15:03:34.269Z,27.20
2022-08-25T15:05:34.250Z,27.10
2022-08-25T15:07:34.237Z,27.10
2022-08-25T15:09:34.265Z,27.20
2022-08-25T15:11:34.294Z,27.20
2022-08-25T15:13:34.266Z,27.20
2022-08-25T15:15:34.379Z,27.10
2022-08-25T15:17:34.281Z,27.10
2022-08-25T15:19:35.238Z,27.00
2022-08-25T15:21:34.249Z,27.00
2022-08-25T15:23:35.409Z,27.10
2022-08-25T15:25:34.296Z,27.10
2022-08-25T15:27:34.285Z,27.10
2022-08-25T15:29:34.309Z,27.20
2022-08-25T15:31:34.329Z,27.30
2022-08-25T15:33:34.211Z,27.40
2022-08-25T15:35:34.246Z,27.40
2022-08-25T15:37:34.262Z,27.60
2022-08-25T15:39:34.243Z,27.60
2022-08-25T15:41:34.305Z,27.60
2022-08-25T15:43:34.301Z,27.60
2022-08-25T15:47:34.262Z,27.60
2022-08-25T15:49:34.253Z,27.60
2022-08-25T15:51:34.377Z,27.50
2022-08-25T15:54:04.306Z,27.50
2022-08-25T15:56:06.199Z,27.50
2022-08-25T15:58:04.302Z,27.40
2022-08-25T16:00:04.316Z,27.40
2022-08-25T16:02:05.308Z,27.50
2022-08-25T16:04:04.358Z,27.50
2022-08-25T16:06:05.324Z,27.50
2022-08-25T16:08:04.285Z,27.40
2022-08-25T16:10:04.241Z,27.40
2022-08-25T16:12:06.784Z,27.40
2022-08-25T16:14:04.377Z,27.40
2022-08-25T16:16:04.414Z,27.40
2022-08-25T16:18:04.833Z,27.40
2022-08-25T16:20:04.361Z,27.30
2022-08-25T16:22:04.286Z,27.30
2022-08-25T16:24:07.458Z,27.30
2022-08-25T16:26:04.323Z,27.10
2022-08-25T16:28:04.329Z,27.00
2022-08-25T16:30:04.331Z,27.00
2022-08-25T16:32:04.354Z,27.00
2022-08-25T16:34:04.378Z,26.90
2022-08-25T16:36:04.284Z,26.80
2022-08-25T16:38:04.455Z,26.60
2022-08-25T16:40:04.309Z,26.60
2022-08-25T16:42:04.351Z,26.60
2022-08-25T16:44:04.327Z,26.50
2022-08-25T16:46:04.394Z,26.40
2022-08-25T16:48:04.370Z,26.50
2022-08-25T16:50:04.367Z,26.50
2022-08-25T16:52:04.335Z,26.50
2022-08-25T16:54:04.319Z,26.50
2022-08-25T16:56:05.778Z,26.40
2022-08-25T16:58:05.330Z,26.40
2022-08-25T17:00:04.359Z,26.40
2022-08-25T17:02:04.898Z,26.30
2022-08-25T17:04:04.386Z,26.30
2022-08-25T17:06:04.423Z,26.20
2022-08-25T17:08:04.429Z,26.20
2022-08-25T17:10:04.321Z,26.20
2022-08-25T17:12:04.397Z,26.20
2022-08-25T17:14:04.355Z,26.10
2022-08-25T17:16:04.480Z,26.00
2022-08-25T17:18:04.667Z,25.90
2022-08-25T17:20:04.909Z,25.90
2022-08-25T17:22:04.333Z,25.90
2022-08-25T17:24:04.807Z,25.90
2022-08-25T17:26:04.570Z,25.80
2022-08-25T17:28:04.456Z,25.80
2022-08-25T17:30:04.369Z,25.70
2022-08-25T17:32:04.595Z,25.80
2022-08-25T17:34:04.384Z,25.60
2022-08-25T17:36:04.527Z,25.60
2022-08-25T17:38:04.505Z,25.60
2022-08-25T17:40:04.391Z,25.40
2022-08-25T17:42:04.362Z,25.20
2022-08-25T17:44:04.345Z,25.20
2022-08-25T17:46:04.523Z,24.90
2022-08-25T17:48:04.387Z,24.90
2022-08-25T17:50:04.403Z,24.80
2022-08-25T17:52:04.474Z,24.60
2022-08-25T17:54:34.456Z,24.40
2022-08-25T17:56:34.408Z,24.30
2022-08-25T17:58:34.380Z,24.20
2022-08-25T18:00:34.396Z,24.20
2022-08-25T18:02:34.411Z,24.10
2022-08-25T18:04:34.420Z,24.00
2022-08-25T18:06:34.719Z,23.90
2022-08-25T18:08:35.346Z,23.80
2022-08-25T18:10:34.420Z,23.80
2022-08-25T18:12:34.396Z,23.70
2022-08-25T18:14:34.405Z,23.60
2022-08-25T18:16:34.456Z,23.50
2022-08-25T18:18:34.415Z,23.40
2022-08-25T18:20:34.472Z,23.40
2022-08-25T18:22:34.444Z,23.30
2022-08-25T18:24:34.487Z,23.30
2022-08-25T18:26:34.408Z,23.10
2022-08-25T18:28:34.392Z,23.10
2022-08-25T18:30:34.424Z,22.90
2022-08-25T18:32:34.437Z,22.80
2022-08-25T18:34:34.490Z,22.60
2022-08-25T18:36:38.519Z,22.40
2022-08-25T18:38:35.467Z,22.40
2022-08-25T18:40:34.455Z,22.30
2022-08-25T18:42:34.363Z,22.20
2022-08-25T18:44:34.410Z,22.10
2022-08-25T18:46:34.500Z,22.00
2022-08-25T18:48:34.532Z,22.00
2022-08-25T18:50:34.469Z,21.90
2022-08-25T18:52:34.695Z,21.80
2022-08-25T18:54:36.184Z,21.60
2022-08-25T18:56:34.436Z,21.60
2022-08-25T18:58:34.402Z,21.50
2022-08-25T19:00:34.408Z,21.40
2022-08-25T19:02:34.559Z,21.30
2022-08-25T19:04:34.650Z,21.30
2022-08-25T19:06:34.465Z,21.30
2022-08-25T19:08:34.493Z,21.00
2022-08-25T19:10:34.543Z,20.90
2022-08-25T19:12:36.695Z,20.80
2022-08-25T19:14:34.396Z,20.70
2022-08-25T19:16:34.463Z,20.70
2022-08-25T19:18:34.445Z,20.60
2022-08-25T19:20:34.551Z,20.50
2022-08-25T19:22:41.571Z,20.40
2022-08-25T19:24:34.492Z,20.40
2022-08-25T19:26:34.535Z,20.40
2022-08-25T19:28:34.534Z,20.20
2022-08-25T19:30:34.466Z,20.10
2022-08-25T19:32:34.451Z,20.00
2022-08-25T19:34:34.518Z,20.00
2022-08-25T19:36:35.516Z,19.90
2022-08-25T19:38:35.534Z,19.90
2022-08-25T19:40:34.474Z,19.80
2022-08-25T19:42:38.285Z,19.70
2022-08-25T19:44:34.638Z,19.70
2022-08-25T19:46:35.384Z,19.70
2022-08-25T19:48:34.465Z,19.60
2022-08-25T19:50:34.619Z,19.60
2022-08-25T19:52:34.501Z,19.60
2022-08-25T19:55:05.625Z,19.60
2022-08-25T19:57:05.016Z,19.50
2022-08-25T19:59:04.994Z,19.40
2022-08-25T20:01:04.653Z,19.40
2022-08-25T20:03:04.622Z,19.40
2022-08-25T20:05:04.475Z,19.40
2022-08-25T20:07:04.608Z,19.30
2022-08-25T20:09:04.516Z,19.20
2022-08-25T20:11:04.553Z,19.20
2022-08-25T20:13:04.528Z,19.20
2022-08-25T20:15:04.573Z,19.20
2022-08-25T20:17:04.537Z,19.10
2022-08-25T20:19:04.483Z,19.10
2022-08-25T20:21:04.521Z,19.10
2022-08-25T20:23:04.525Z,19.10
2022-08-25T20:25:13.004Z,19.10
2022-08-25T20:27:04.622Z,19.10
2022-08-25T20:29:04.562Z,19.10
2022-08-25T20:31:04.567Z,19.10
2022-08-25T20:33:04.477Z,19.10
2022-08-25T20:35:04.625Z,19.10
2022-08-25T20:37:04.614Z,19.00
2022-08-25T20:39:04.540Z,19.10
2022-08-25T20:41:04.581Z,19.10
2022-08-25T20:43:04.570Z,19.00
2022-08-25T20:45:04.602Z,19.00
2022-08-25T20:47:04.499Z,18.90
2022-08-25T20:49:04.549Z,18.90
2022-08-25T20:51:04.551Z,18.90
2022-08-25T20:53:04.539Z,18.80
2022-08-25T20:55:04.641Z,18.80
2022-08-25T20:58:57.727Z,18.80
2022-08-25T21:00:57.937Z,18.80
2022-08-25T21:02:57.748Z,18.80
2022-08-25T21:04:57.722Z,18.80
2022-08-25T21:06:57.764Z,18.80
2022-08-25T21:08:57.796Z,18.80
2022-08-25T21:10:57.736Z,18.80
2022-08-25T21:12:58.732Z,18.90
2022-08-25T21:14:57.739Z,19.10
2022-08-25T21:16:57.815Z,19.20
2022-08-25T21:18:57.758Z,19.20
2022-08-25T21:20:57.915Z,19.30
2022-08-25T21:22:57.722Z,19.30
2022-08-25T21:25:27.765Z,19.20
2022-08-25T21:27:27.827Z,19.20
2022-08-25T21:29:28.601Z,19.00
2022-08-25T21:31:27.751Z,19.00
2022-08-25T21:33:28.312Z,19.00
2022-08-25T21:35:27.813Z,18.90
2022-08-25T21:37:27.721Z,18.80
2022-08-25T21:39:28.227Z,18.80
2022-08-25T21:41:27.824Z,18.80
2022-08-25T21:43:27.813Z,18.80
2022-08-25T21:45:27.740Z,18.70
2022-08-25T21:47:27.868Z,18.70
2022-08-25T21:49:27.745Z,18.80
2022-08-25T21:51:27.769Z,18.80
2022-08-25T21:53:27.772Z,18.70
2022-08-25T21:55:27.851Z,18.70
2022-08-25T21:57:27.744Z,18.60
2022-08-25T21:59:27.794Z,18.60
2022-08-25T22:01:27.838Z,18.70
2022-08-25T22:03:27.786Z,18.70
2022-08-25T22:05:27.775Z,18.70
2022-08-25T22:07:27.798Z,18.70
2022-08-25T22:09:28.377Z,18.70
2022-08-25T22:11:27.777Z,18.70
2022-08-25T22:13:27.841Z,18.60
2022-08-25T22:15:27.811Z,18.60
2022-08-25T22:17:27.889Z,18.50
2022-08-25T22:19:27.795Z,18.50
2022-08-25T22:21:27.782Z,18.50
2022-08-25T22:23:28.148Z,18.40
2022-08-25T22:25:27.884Z,18.50
2022-08-25T22:27:27.834Z,18.50
2022-08-25T22:29:27.827Z,18.50
2022-08-25T22:31:27.800Z,18.60
2022-08-25T22:33:27.827Z,18.60
2022-08-25T22:35:27.844Z,18.60
2022-08-25T22:37:27.780Z,18.60
2022-08-25T22:39:27.776Z,18.50
2022-08-25T22:41:28.102Z,18.50
2022-08-25T22:43:27.836Z,18.50
2022-08-25T22:45:28.033Z,18.50
2022-08-25T22:47:27.913Z,18.50
2022-08-25T22:49:27.784Z,18.50
2022-08-25T22:51:27.839Z,18.60
2022-08-25T22:53:27.883Z,18.60
2022-08-25T22:55:28.121Z,18.60
2022-08-25T22:57:27.839Z,18.60
2022-08-25T22:59:27.854Z,18.80
2022-08-25T23:01:27.889Z,19.00
2022-08-25T23:03:27.891Z,19.20
2022-08-25T23:05:27.824Z,19.20
2022-08-25T23:07:27.828Z,19.20
2022-08-25T23:09:27.824Z,19.20
2022-08-25T23:11:28.951Z,19.20
2022-08-25T23:13:34.189Z,19.20
2022-08-25T23:15:27.959Z,19.20
2022-08-25T23:17:27.856Z,19.20
2022-08-25T23:19:28.146Z,19.10
2022-08-25T23:21:57.880Z,19.10
2022-08-25T23:23:57.830Z,19.00
2022-08-25T23:25:57.857Z,19.00
2022-08-25T23:27:57.808Z,18.90
2022-08-25T23:29:57.840Z,18.80
2022-08-25T23:31:57.902Z,18.80
2022-08-25T23:33:57.841Z,18.80
2022-08-25T23:35:57.846Z,18.80
2022-08-25T23:37:57.841Z,18.70
2022-08-25T23:39:57.855Z,18.70
2022-08-25T23:41:57.885Z,18.60
2022-08-25T23:43:57.947Z,18.60
2022-08-25T23:45:58.060Z,18.60
2022-08-25T23:47:57.839Z,18.60
2022-08-25T23:49:57.856Z,18.60
2022-08-25T23:51:57.872Z,18.50
2022-08-25T23:53:57.834Z,18.50
2022-08-25T23:55:57.909Z,18.50
2022-08-25T23:57:57.871Z,18.50
2022-08-25T23:59:57.923Z,18.40
